Steel Dynamics Inc (STLD) Latest Bloomsberg Price


Mffais Ranking #2611 Overall / #16 Industry
Industry: Steel Producers

Number of Companies: 293 (Ranking #534 Overall/#2 Industry)
Inflow: $ 264,784 (K) (Ranking #465 Overall/#3 Industry)
Outflow: $ -421,650 (K)
Mffais Flow: $ -156,866 (K) (Ranking #2611 Overall/#16 Industry)


Receive a FREE weekly executive review of stocks moving into the top 10, taking the top industy spot or moving up within their industry. Sent directly to your Inbox every Saturday. Sign up today and get last week's review immediately sent to you.

We value and respect your privacy. Please read our Terms and Conditions which states our firm commitment to your privacy. Your email address will not be shared with a third party, nor will it be sold or used for purposes other than subscription for the weekly review.

Owner CPOR Shares Action Qty Chg Invested (K) Total Current Value (K)
Highline Capital Management L P 2016-09-30 2,820,872 New Holding 2,820,872 $ 74,358 $ 74,358
Luminus Management Llc 2016-09-30 1,028,622 New Holding 1,028,622 $ 27,114 $ 27,114
Point72 Asia Singapore Pte Ltd 2016-09-30 800,000 New Holding 800,000 $ 21,088 $ 21,088
Lord Abbett Co Llc 2016-09-30 2,314,377 Added More 743,779 $ 19,606 $ 61,006
Bw Gestao De Investimentos Ltda 2016-09-30 400,000 New Holding 400,000 $ 10,544 $ 10,544
Teacher Retirement System Of Texas 2016-09-30 798,301 Added More 386,663 $ 10,192 $ 21,043
British Airways Pensions Investment Management Ltd 2016-09-30 903,426 Added More 291,956 $ 7,695 $ 23,814
Kames Capital Plc 2016-09-30 877,764 Added More 271,449 $ 7,155 $ 23,137
Raymond James Associates 2016-09-30 638,420 Added More 189,762 $ 5,002 $ 16,828
Cornerstone Capital Management Holdings Llc 2016-09-30 1,032,307 Added More 180,395 $ 4,755 $ 27,211
Her Majesty The Queen In Right Of The Province Of Alberta As 2016-09-30 205,700 Added More 179,100 $ 4,721 $ 5,422
Putnam Investments Llc 2016-09-30 170,166 Added More 161,199 $ 4,249 $ 4,485
Teachers Advisors Inc 2016-09-30 1,246,678 Added More 156,785 $ 4,132 $ 32,862
Airain Ltd 2016-09-30 210,629 Added More 147,691 $ 3,893 $ 5,552
Vollero Beach Capital Partners Llc 2016-09-30 211,008 Added More 140,184 $ 3,695 $ 5,562
Commonwealth Bank Of Australia 2016-09-30 145,542 Added More 123,347 $ 3,251 $ 3,836
Parametric Portfolio Associates Llc 2016-09-30 462,614 Added More 122,255 $ 3,222 $ 12,194
Martingale Asset Management L P 2016-09-30 120,252 New Holding 120,252 $ 3,169 $ 3,169
Marshall Wace Llp 2016-09-30 161,283 Added More 115,992 $ 3,057 $ 4,251
Bowling Portfolio Management Llc 2016-09-30 113,564 New Holding 113,564 $ 2,993 $ 2,993
Gareth Morgan Investments Limited Partnership 2016-09-30 108,166 New Holding 108,166 $ 2,851 $ 2,851
Pinebridge Investments L P 2016-09-30 231,639 Added More 103,552 $ 2,729 $ 6,106
Quantitative Investment Management Llc 2016-09-30 244,000 Added More 97,500 $ 2,570 $ 6,431
Cutler Group Lp 2016-09-30 345,986 Added More 90,500 $ 2,385 $ 9,120
Vident Investment Advisory Llc 2016-09-30 87,551 New Holding 87,551 $ 2,307 $ 2,307
Redwood Investments Llc 2016-09-30 851,461 Added More 86,610 $ 2,283 $ 22,444
Cadence Capital Management Llc 2016-09-30 113,851 Added More 65,459 $ 1,725 $ 3,001
Prudential Plc 2016-09-30 766,900 Added More 52,100 $ 1,373 $ 20,215
Clarivest Asset Management Llc 2016-09-30 1,289,952 Added More 50,391 $ 1,328 $ 34,003
Counsel Portfolio Services Inc 2016-06-30 51,928 New Holding 51,928 $ 1,272 $ 1,272
Mitsubishi Ufj Trust Banking Corp 2016-09-30 265,024 Added More 41,700 $ 1,099 $ 6,986
Guggenheim Capital Llc 2016-09-30 231,107 Added More 39,569 $ 1,043 $ 6,091
Deere Co 2016-09-30 88,019 Added More 31,919 $ 841 $ 2,320
Hancock Holding Co 2016-09-30 148,924 Added More 31,174 $ 821 $ 3,925
Northern Trust Corp 2016-09-30 1,916,959 Added More 31,043 $ 818 $ 50,531
Dupont Capital Management Corp 2016-09-30 151,100 Added More 29,340 $ 773 $ 3,982
Nuveen Asset Management Llc 2016-09-30 442,064 Added More 29,289 $ 772 $ 11,652
Meeder Asset Management Inc 2016-09-30 89,698 Added More 27,412 $ 722 $ 2,364
Hudson Bay Capital Management Lp 2016-09-30 27,024 New Holding 27,024 $ 712 $ 712
Tudor Investment Corp Et Al 2016-09-30 81,252 Added More 26,901 $ 709 $ 2,141
Nikko Asset Management Americas Inc 2016-09-30 381,100 Added More 26,400 $ 695 $ 10,045
Usa Financial Portformulas Corp 2016-09-30 25,809 New Holding 25,809 $ 680 $ 680
Robeco Institutional Asset Management B V 2016-09-30 84,435 Added More 24,711 $ 651 $ 2,225
Sterling Capital Management Llc 2016-09-30 100,898 Added More 23,458 $ 618 $ 2,659
Connor Clark Lunn Investment Management Ltd 2016-09-30 21,000 New Holding 21,000 $ 553 $ 553
Globeflex Capital L P 2016-09-30 93,740 Added More 21,000 $ 553 $ 2,470
Legacy Private Trust Co 2016-09-30 20,865 New Holding 20,865 $ 550 $ 550
Tower Research Capital Llc Trc 2016-09-30 26,584 Added More 20,741 $ 546 $ 700
Dorsey Wright Associates 2016-09-30 19,083 New Holding 19,083 $ 503 $ 503
First Quadrant L P Ca 2016-09-30 729,114 Added More 18,837 $ 496 $ 19,219
Cibc World Markets Inc 2016-09-30 18,729 New Holding 18,729 $ 493 $ 493
Raymond James Financial Services Advisors Inc 2016-09-30 18,683 New Holding 18,683 $ 492 $ 492
Jacobs Levy Equity Management Inc 2016-09-30 17,900 New Holding 17,900 $ 471 $ 471
Alpha Windward Llc 2016-09-30 18,824 Added More 17,520 $ 461 $ 496
Soros Fund Management Llc 2016-09-30 16,996 New Holding 16,996 $ 448 $ 448
Private Advisor Group Llc 2016-09-30 34,839 Added More 16,735 $ 441 $ 918
Rhumbline Advisers 2016-09-30 415,970 Added More 14,194 $ 374 $ 10,964
Gotham Asset Management Llc 2016-09-30 276,688 Added More 12,613 $ 332 $ 7,293
Cetera Advisor Networks Llc 2016-09-30 9,442 New Holding 9,442 $ 248 $ 248
Glg Partners Lp 2016-09-30 8,500 New Holding 8,500 $ 224 $ 224
Invictus Rg 2016-09-30 12,739 Added More 8,214 $ 216 $ 335
Pnc Financial Services Group Inc 2016-09-30 33,402 Added More 7,195 $ 189 $ 880
Squarepoint Ops Llc 2016-09-30 62,234 Added More 4,907 $ 129 $ 1,640
California State Teachers Retirement System 2016-09-30 512,973 Added More 4,300 $ 113 $ 13,521
World Asset Management Inc 2016-09-30 17,940 Added More 3,820 $ 100 $ 472
Pinnacle Associates Ltd 2016-09-30 87,675 Added More 3,275 $ 86 $ 2,311
Aperio Group Llc 2016-09-30 74,057 Added More 3,066 $ 80 $ 1,952
Advisors Asset Management Inc 2016-09-30 71,256 Added More 3,021 $ 79 $ 1,878
Dekabank Deutsche Girozentrale 2016-09-30 4,496 Added More 2,896 $ 76 $ 118
Us Bancorp De 2016-09-30 36,256 Added More 2,630 $ 69 $ 955
Teachers Retirement System Of The State Of Kentucky 2016-09-30 58,400 Added More 2,600 $ 68 $ 1,539
Cantab Capital Partners Llp 2016-09-30 15,777 Added More 2,600 $ 68 $ 415
Hillsdale Investment Management Inc 2016-09-30 14,540 Added More 2,040 $ 53 $ 383
Acrospire Investment Management Llc 2016-09-30 7,599 Added More 1,900 $ 50 $ 200
Pacer Advisors Inc 2016-09-30 27,517 Added More 1,899 $ 50 $ 725
Mason Street Advisors Llc 2016-09-30 112,785 Added More 1,709 $ 45 $ 2,973
Venturi Wealth Management Llc 2016-09-30 145,563 Added More 1,580 $ 41 $ 3,837
Ikos Cif Ltd 2016-09-30 2,407 Added More 1,407 $ 37 $ 63
Mutual Of America Capital Management Llc 2016-09-30 182,991 Added More 1,279 $ 33 $ 4,823
Lucus Advisors Llc 2016-09-30 15,607 Added More 1,092 $ 28 $ 411
Liberty Mutual Group Asset Management Inc 2016-09-30 106,601 Added More 1,033 $ 27 $ 2,810
Ls Investment Advisors Llc 2016-09-30 15,736 Added More 1,002 $ 26 $ 414
Zurcher Kantonalbank Zurich Cantonalbank 2016-09-30 7,986 Added More 961 $ 25 $ 210
Cambridge Investment Research Advisors Inc 2016-09-30 12,695 Added More 949 $ 25 $ 334
First Interstate Bank 2016-09-30 921 New Holding 921 $ 24 $ 24
Gideon Capital Advisors Inc 2016-09-30 13,125 Added More 764 $ 20 $ 345
William Blair Investment Management Llc 2016-09-30 29,291 Added More 679 $ 17 $ 772
Financial Architects Inc 2016-09-30 600 New Holding 600 $ 15 $ 15
Oakbrook Investments Llc 2016-09-30 24,550 Added More 500 $ 13 $ 647
State Treasurer State Of Michigan 2016-09-30 98,100 Added More 400 $ 10 $ 2,585
Cetera Advisors Llc 2016-09-30 12,151 Added More 383 $ 10 $ 320
Harel Insurance Investments Financial Services Ltd 2016-09-30 310 New Holding 310 $ 8 $ 8
Hanseatic Management Services Inc 2016-09-30 29,661 Added More 275 $ 7 $ 781
First Republic Investment Management Inc 2016-09-30 8,911 Added More 241 $ 6 $ 234
Fifth Third Bancorp 2016-09-30 3,766 Added More 230 $ 6 $ 99
First Citizens Bank Trust Co 2016-09-30 15,723 Added More 208 $ 5 $ 414
Weaver C Barksdale Associates Inc 2016-09-30 1,451 Added More 189 $ 4 $ 38
Comerica Bank 2016-09-30 172,089 Added More 181 $ 4 $ 4,536
Ftb Advisors Inc 2016-09-30 214 Added More 171 $ 4 $ 5
Advantus Capital Management Inc 2016-09-30 29,668 Added More 169 $ 4 $ 782
Fortaleza Asset Management Inc 2016-09-30 145 New Holding 145 $ 3 $ 3
Smith Asset Management Group Lp 2016-09-30 2,390 Added More 140 $ 3 $ 63
Old National Bancorp In 2016-09-30 19,690 Added More 131 $ 3 $ 519
Oshaughnessy Asset Management Llc 2016-09-30 10,081 Added More 106 $ 2 $ 265
Arizona State Retirement System 2016-09-30 95,230 Added More 100 $ 2 $ 2,510
M T Bank Corp 2016-09-30 17,774 Added More 67 $ 1 $ 468
Benjamin F Edwards Company Inc 2016-09-30 1,258 Added More 58 $ 1 $ 33
Washington Trust Bank 2016-09-30 2,306 Added More 26 $ 0 $ 60
Parkside Financial Bank Trust 2016-09-30 1,147 Added More 7 $ 0 $ 30
Fuller Thaler Asset Management Inc 2016-09-30 4,800 No Change 0 $ 0 $ 126
First Financial Corp In 2016-09-30 1,000 No Change 0 $ 0 $ 26
Howe Rusling Inc 2016-09-30 87 No Change 0 $ 0 $ 2
Wasatch Advisors Inc 2016-09-30 414,311 No Change 0 $ 0 $ 10,921
Union Bankshares Corp 2016-09-30 13,955 No Change 0 $ 0 $ 367
I G Investment Management Ltd 2016-09-30 90,000 No Change 0 $ 0 $ 2,372
Mackenzie Financial Corp 2016-09-30 314,500 No Change 0 $ 0 $ 8,290
Leavell Investment Management Inc 2016-09-30 12,000 No Change 0 $ 0 $ 316
Nisa Investment Advisors Llc 2016-09-30 29,320 No Change 0 $ 0 $ 772
Shelton Capital Management 2016-09-30 23,032 No Change 0 $ 0 $ 607
Dixon Hubard Feinour Brown Inc Va 2016-09-30 44,545 No Change 0 $ 0 $ 1,174
Enterprise Financial Services Corp 2016-09-30 569 No Change 0 $ 0 $ 14
Eaton Vance Management 2016-09-30 50,955 No Change 0 $ 0 $ 1,343
Catawba Capital Management Va 2016-09-30 18,708 No Change 0 $ 0 $ 493
Kanaly Trust Co 2016-09-30 357 No Change 0 $ 0 $ 9
Brave Asset Management Inc 2016-09-30 12,500 No Change 0 $ 0 $ 329
North Point Portfolio Managers Corp Oh 2016-09-30 8,300 No Change 0 $ 0 $ 218
Yorktown Management Research Co Inc 2016-09-30 11,100 No Change 0 $ 0 $ 292
Legg Mason Asset Management Japan Co Ltd 2016-09-30 46,800 No Change 0 $ 0 $ 1,233
3g Capital Partners Lp 2016-09-30 2,500,000 No Change 0 $ 0 $ 65,900
State Of New Jersey Common Pension Fund D 2016-09-30 15,000 No Change 0 $ 0 $ 395
Gradient Investments Llc 2016-09-30 550 No Change 0 $ 0 $ 14
Utah Retirement Systems 2016-09-30 42,741 No Change 0 $ 0 $ 1,126
Piermont Capital Management Inc 2016-09-30 15,270 No Change 0 $ 0 $ 402
Signalpoint Asset Management Llc 2016-09-30 23,008 No Change 0 $ 0 $ 606
Whitnell Co 2016-09-30 494 No Change 0 $ 0 $ 13
Winfield Associates Inc 2016-09-30 80 No Change 0 $ 0 $ 2
New Century Advisors Llc 2016-09-30 18,500 No Change 0 $ 0 $ 487
Strategic Global Advisors Llc 2016-09-30 31,619 No Change 0 $ 0 $ 833
State Of Tennessee Treasury Department 2016-09-30 104,500 No Change 0 $ 0 $ 2,754
Capital Impact Advisors Llc 2016-09-30 42,640 No Change 0 $ 0 $ 1,123
Archford Capital Strategies Llc 2016-09-30 27 No Change 0 $ 0 $ 0
Gemmer Asset Management Llc 2016-09-30 503 No Change 0 $ 0 $ 13
Next Financial Group Inc 2016-09-30 450 No Change 0 $ 0 $ 11
Roble Belko Company Inc 2016-09-30 1,200 No Change 0 $ 0 $ 31
Quadrant Capital Group Llc 2016-09-30 2,413 No Change 0 $ 0 $ 63
Proficio Capital Partners Llc 2016-09-30 21 No Change 0 $ 0 $ 0
Bronfman E L Rothschild L P 2016-09-30 40 No Change 0 $ 0 $ 1
Wespac Advisors Socal Llc 2016-09-30 50 No Change 0 $ 0 $ 1
Sevenbridge Financial Group Llc 2016-09-30 150 No Change 0 $ 0 $ 3
Legal General Group Plc 2016-09-30 160,150 Sold Some -3 $ -0 $ 4,221
Regal Investment Advisors Llc 2016-09-30 36,558 Sold Some -19 $ -0 $ 963
Capital One National Association 2016-09-30 42,894 Sold Some -21 $ -0 $ 1,130
Kistler-Tiffany Companies Llc 2016-09-30 1,500 Sold Some -37 $ -0 $ 39
Northwestern Mutual Investment Management Company Llc 2016-09-30 41,976 Sold Some -74 $ -1 $ 1,106
Koshinski Asset Management Inc 2016-09-30 12,675 Sold Some -100 $ -2 $ 334
Thompson Davis Co Inc 2016-09-30 0 Sold All -113 $ -2 $ 0
First Manhattan Co 2016-09-30 0 Sold All -121 $ -3 $ 0
Frontier Capital Management Co Llc 2016-09-30 234,997 Sold Some -185 $ -4 $ 6,194
First Mercantile Trust Co 2016-09-30 3,493 Sold Some -208 $ -5 $ 92
Tradelink Capital Llc 2016-09-30 8,153 Sold Some -222 $ -5 $ 214
Advisory Services Network Llc 2016-09-30 0 Sold All -277 $ -7 $ 0
Ngam Advisors L P 2016-09-30 11,026 Sold Some -339 $ -8 $ 290
Ns Partners Ltd 2016-09-30 220,841 Sold Some -366 $ -9 $ 5,821
New York Life Trust Co 2016-09-30 3,111 Sold Some -435 $ -11 $ 82
Comerica Securities Inc 2016-09-30 14,148 Sold Some -536 $ -14 $ 372
Texas Permanent School Fund 2016-09-30 185,695 Sold Some -543 $ -14 $ 4,894
Palladium Partners Llc 2016-09-30 15,814 Sold Some -686 $ -18 $ 416
American International Group Inc 2016-09-30 470,545 Sold Some -741 $ -19 $ 12,403
Fdx Advisors Inc 2016-09-30 13,064 Sold Some -781 $ -20 $ 344
Ifp Advisors Inc 2016-09-30 1,443 Sold Some -816 $ -21 $ 38
Capstone Asset Management Co 2016-09-30 26,233 Sold Some -841 $ -22 $ 691
Johnson Financial Group Inc 2016-09-30 2,348 Sold Some -894 $ -23 $ 61
Checchi Capital Advisers Llc 2016-09-30 0 Sold All -1,068 $ -28 $ 0
Advisor Group Inc 2016-09-30 2,289 Sold Some -1,171 $ -30 $ 60
Northwestern Mutual Wealth Management Co 2016-09-30 920 Sold Some -1,198 $ -31 $ 24
Ibm Retirement Fund 2016-09-30 22,248 Sold Some -1,460 $ -38 $ 586
Bluestein R H Co 2016-09-30 12,500 Sold Some -1,465 $ -38 $ 329
Nationwide Fund Advisors 2016-09-30 445,738 Sold Some -1,717 $ -45 $ 11,749
Breton Hill Capital Ltd 2016-09-30 28,343 Sold Some -1,851 $ -48 $ 747
Sei Investments Co 2016-09-30 142,644 Sold Some -2,216 $ -58 $ 3,760
Bokf Na 2016-09-30 117,194 Sold Some -2,623 $ -69 $ 3,089
Blackrock Investment Management Llc 2016-09-30 784,877 Sold Some -2,708 $ -71 $ 20,689
Princeton Alpha Management Lp 2016-09-30 42,841 Sold Some -2,926 $ -77 $ 1,129
Msi Financial Services Inc 2016-09-30 10,644 Sold Some -3,057 $ -80 $ 280
Private Wealth Advisors Inc 2016-09-30 43,116 Sold Some -3,225 $ -85 $ 1,136
Proshare Advisors Llc 2016-09-30 37,417 Sold Some -3,276 $ -86 $ 986
Monarch Capital Management Inc 2016-09-30 104,270 Sold Some -3,975 $ -104 $ 2,748
Royce Associates Lp 2016-09-30 265,421 Sold Some -4,200 $ -110 $ 6,996
Old Mutual Customised Solutions Proprietary Ltd 2016-09-30 2,400 Sold Some -4,600 $ -121 $ 63
Nomura Asset Management Co Ltd 2016-09-30 0 Sold All -4,650 $ -122 $ 0
Chicago Equity Partners Llc 2016-09-30 45,995 Sold Some -5,165 $ -136 $ 1,212
Ladenburg Thalmann Financial Services Inc 2016-09-30 22,329 Sold Some -5,652 $ -148 $ 588
Stifel Financial Corp 2016-09-30 70,840 Sold Some -5,787 $ -152 $ 1,867
Envestnet Asset Management Inc 2016-09-30 43,171 Sold Some -5,887 $ -155 $ 1,137
Springbok Capital Management Llc 2016-09-30 1,025 Sold Some -5,983 $ -157 $ 27
New York State Teachers Retirement System 2016-09-30 511,647 Sold Some -6,800 $ -179 $ 13,487
Keybank National Association Oh 2016-09-30 20,171 Sold Some -7,863 $ -207 $ 531
Commonwealth Equity Services Inc 2016-09-30 45,899 Sold Some -8,097 $ -213 $ 1,209
Gateway Investment Advisers Llc 2016-09-30 492,058 Sold Some -9,252 $ -243 $ 12,970
Fox Run Management L L C 2016-09-30 0 Sold All -9,300 $ -245 $ 0
Capstone Investment Advisors Llc 2016-09-30 0 Sold All -9,300 $ -245 $ 0
Dynamic Technology Lab Private Ltd 2016-09-30 0 Sold All -9,603 $ -253 $ 0
Jump Trading Llc 2016-09-30 0 Sold All -9,900 $ -260 $ 0
Hartford Investment Management Co 2016-09-30 0 Sold All -10,280 $ -270 $ 0
Verition Fund Management Llc 2016-09-30 75,485 Sold Some -10,455 $ -275 $ 1,989
Employees Retirement System Of Texas 2016-09-30 73,600 Sold Some -11,000 $ -289 $ 1,940
Swiss National Bank 2016-09-30 394,100 Sold Some -11,300 $ -297 $ 10,388
Blackrock Inc 2016-09-30 169,036 Sold Some -11,393 $ -300 $ 4,455
Babson Capital Management Llc 2016-09-30 63,000 Sold Some -12,200 $ -321 $ 1,660
Emerald Mutual Fund Advisers Trust 2016-09-30 0 Sold All -13,738 $ -362 $ 0
South Dakota Investment Council 2016-09-30 248,800 Sold Some -15,000 $ -395 $ 6,558
Tfs Capital Llc 2016-09-30 0 Sold All -15,086 $ -397 $ 0
Profund Advisors Llc 2016-09-30 54,592 Sold Some -15,400 $ -405 $ 1,439
Qs Investors Llc 2016-09-30 526,688 Sold Some -15,868 $ -418 $ 13,883
Integral Derivatives Llc 2016-09-30 0 Sold All -16,000 $ -421 $ 0
Simplex Trading Llc 2016-09-30 0 Sold All -16,829 $ -443 $ 0
Amp Capital Investors Ltd 2016-09-30 0 Sold All -17,900 $ -471 $ 0
Ahl Partners Llp 2016-09-30 98,792 Sold Some -18,139 $ -478 $ 2,604
Summit Securities Group Llc 2016-09-30 0 Sold All -21,280 $ -560 $ 0
Gsa Capital Partners Llp 2016-09-30 30,687 Sold Some -21,534 $ -567 $ 808
Tlp Group Llc 2016-09-30 0 Sold All -22,614 $ -596 $ 0
Dynamic Capital Management Ltd 2016-09-30 42,129 Sold Some -23,639 $ -623 $ 1,110
Emerald Advisers Inc Pa 2016-09-30 42,045 Sold Some -25,701 $ -677 $ 1,108
Sentinel Trust Co Lba 2016-09-30 109,595 Sold Some -26,323 $ -693 $ 2,888
Cubist Systematic Strategies Llc 2016-09-30 14,051 Sold Some -26,610 $ -701 $ 370
Ellington Management Group Llc 2016-09-30 0 Sold All -26,700 $ -703 $ 0
Oregon Public Employees Retirement Fund 2016-09-30 84,724 Sold Some -27,098 $ -714 $ 2,233
Sheets Smith Wealth Management 2016-09-30 0 Sold All -27,195 $ -716 $ 0
Timber Hill Llc 2016-09-30 0 Sold All -28,015 $ -738 $ 0
Qcm Cayman Ltd 2016-09-30 0 Sold All -29,432 $ -775 $ 0
Menta Capital Llc 2016-09-30 22,632 Sold Some -30,650 $ -807 $ 596
Picton Mahoney Asset Management 2016-09-30 0 Sold All -31,600 $ -832 $ 0
Quantitative Systematic Strategies Llc 2016-09-30 0 Sold All -32,559 $ -858 $ 0
Convergence Investment Partners Llc 2016-09-30 0 Sold All -32,900 $ -867 $ 0
Sheaff Brock Investment Advisors Llc 2016-09-30 0 Sold All -33,432 $ -881 $ 0
Toth Financial Advisory Corp 2016-09-30 0 Sold All -34,250 $ -902 $ 0
Schonfeld Strategic Advisors Llc 2016-09-30 0 Sold All -34,297 $ -904 $ 0
Thrivent Financial For Lutherans 2016-09-30 3,413,330 Sold Some -34,560 $ -911 $ 89,975
Sciencast Management Lp 2016-09-30 0 Sold All -43,727 $ -1,152 $ 0
Seven Eight Capital Llc 2016-09-30 0 Sold All -44,565 $ -1,174 $ 0
Cipher Capital Lp 2016-09-30 34,738 Sold Some -49,624 $ -1,308 $ 915
Emerald Acquisition Ltd 2016-09-30 253,153 Sold Some -51,192 $ -1,349 $ 6,673
Creative Planning 2016-09-30 22,384 Sold Some -51,322 $ -1,352 $ 590
Pyrrho Capital Management Lp 2016-09-30 0 Sold All -53,000 $ -1,397 $ 0
Retirement Systems Of Alabama 2016-09-30 1,020,445 Sold Some -55,793 $ -1,470 $ 26,898
Affinity Investment Advisors Llc 2016-09-30 165,407 Sold Some -56,057 $ -1,477 $ 4,360
Bluemountain Capital Management Llc 2016-09-30 26,402 Sold Some -56,916 $ -1,500 $ 695
Quantbot Technologies Lp 2016-09-30 5,721 Sold Some -59,682 $ -1,573 $ 150
Wealth Enhancement Advisory Services Llc 2016-09-30 0 Sold All -64,239 $ -1,693 $ 0
Sg Americas Securities Llc 2016-09-30 23,472 Sold Some -64,862 $ -1,709 $ 618
Mesirow Financial Investment Management - Equity Management 2016-09-30 0 Sold All -68,840 $ -1,814 $ 0
Hsbc Holdings Plc 2016-09-30 12,494 Sold Some -76,867 $ -2,026 $ 329
Twin Tree Management Lp 2016-09-30 104,000 Sold Some -80,300 $ -2,116 $ 2,741
Eam Investors Llc 2016-09-30 0 Sold All -80,393 $ -2,119 $ 0
Van Eck Associates Corp 2016-09-30 2,999,067 Sold Some -91,999 $ -2,425 $ 79,055
Panagora Asset Management Inc 2016-09-30 1,585,784 Sold Some -93,138 $ -2,455 $ 41,801
Pacad Investment Ltd 2016-09-30 32,631 Sold Some -93,369 $ -2,461 $ 860
Strs Ohio 2016-09-30 400,000 Sold Some -100,000 $ -2,636 $ 10,544
Castle Creek Arbitrage Llc 2016-09-30 0 Sold All -100,000 $ -2,636 $ 0
Lombard Odier Asset Management Usa Corp 2016-09-30 45,070 Sold Some -101,605 $ -2,678 $ 1,188
Van Hulzen Asset Management Llc 2016-09-30 0 Sold All -115,620 $ -3,047 $ 0
Walleye Trading Llc 2016-09-30 196,100 Sold Some -116,872 $ -3,080 $ 5,169
New York State Common Retirement Fund 2016-09-30 738,392 Sold Some -124,704 $ -3,287 $ 19,464
Hwg Holdings Lp 2016-09-30 0 Sold All -127,653 $ -3,364 $ 0
Spot Trading L L C 2016-09-30 516,100 Sold Some -135,900 $ -3,582 $ 13,604
A R T Advisors Llc 2016-09-30 24,450 Sold Some -142,598 $ -3,758 $ 644
Voloridge Investment Management Llc 2016-09-30 9,500 Sold Some -142,922 $ -3,767 $ 250
Friess Associates Llc 2016-09-30 200,000 Sold Some -150,000 $ -3,954 $ 5,272
Eagle Asset Management Inc 2016-09-30 165,477 Sold Some -152,720 $ -4,025 $ 4,361
Kcg Holdings Inc 2016-09-30 21,925 Sold Some -160,943 $ -4,242 $ 577
Highbridge Capital Management Llc 2016-09-30 85,324 Sold Some -200,267 $ -5,279 $ 2,249
Marketfield Asset Management Llc 2016-09-30 382,573 Sold Some -205,844 $ -5,426 $ 10,084
Stevens Capital Management Lp 2016-09-30 37,450 Sold Some -206,216 $ -5,435 $ 987
Clal Insurance Enterprises Holdings Ltd 2016-09-30 0 Sold All -214,076 $ -5,643 $ 0
Eventide Asset Management Llc 2016-09-30 1,275,000 Sold Some -215,500 $ -5,680 $ 33,609
Bessemer Group Inc 2016-09-30 230,160 Sold Some -224,677 $ -5,922 $ 6,067
Engineers Gate Manager Lp 2016-09-30 0 Sold All -227,970 $ -6,009 $ 0
Dimensional Fund Advisors Lp 2016-09-30 5,649,411 Sold Some -237,847 $ -6,269 $ 148,918
Secor Capital Advisors Lp 2016-09-30 64,540 Sold Some -252,672 $ -6,660 $ 1,701
Capital Fund Management S A 2016-09-30 796,962 Sold Some -266,178 $ -7,016 $ 21,007
Anchor Bolt Capital Lp 2016-09-30 1,921,218 Sold Some -277,099 $ -7,304 $ 50,643
Jane Street Group Llc 2016-09-30 31,396 Sold Some -285,072 $ -7,514 $ 827
Rainier Investment Management Llc 2016-09-30 0 Sold All -308,440 $ -8,130 $ 0
Scout Investments Inc 2016-09-30 364,603 Sold Some -318,368 $ -8,392 $ 9,610
Scopus Asset Management L P 2016-09-30 536,344 Sold Some -463,656 $ -12,221 $ 14,138
Clinton Group Inc 2016-09-30 0 Sold All -491,461 $ -12,954 $ 0
Carlson Capital L P 2016-09-30 72,727 Sold Some -498,673 $ -13,145 $ 1,917
Bocage Capital Llc 2016-09-30 0 Sold All -500,000 $ -13,180 $ 0
Wbi Investments Inc 2016-09-30 80,056 Sold Some -522,591 $ -13,775 $ 2,110
Zacks Investment Management 2016-09-30 167,901 Sold Some -669,191 $ -17,639 $ 4,425
Peak6 Investments L P 2016-09-30 994,300 Sold Some -924,000 $ -24,356 $ 26,209
Foresters Investment Management Company Inc 2016-09-30 35,000 Sold Some -1,741,150 $ -45,896 $ 922
Clearbridge Llc 2016-09-30 271,301 Sold Some -2,902,161 $ -76,500 $ 7,151